Route Details

Aircraft Information
Group: Boeing 767
Types: B762, B763
Route Data
Distance: 2261nm
Duration: 6h 15m
Origin METAR: KONT 171053Z 17004KT 10SM SCT180 23/14 A2988 RMK AO2 SLP097 T02280144
Dest. METAR: PHNL 171053Z 29004KT 10SM FEW025 FEW070 25/21 A2997 RMK AO2 SLP150 T02500211
Freight Data
(for Aug 18, 2022)
Load Factor:
42%
Manifested Cargo: 52,891lbs
Financial History
Total Freight: 167,886lbs
Average Load: 0lbs/flt
Fuel Used: 89,636lbs
Avg. Fuel Used: 0lbs/flt
Fuel Expense: $48,403
Avg. Fuel Expense: $0
Avg. Fuel Cost: $0/lbs
Total Gross Income: $570,812
Pilot Pay: $457
Total Expenses: $113,518
Total Revenue: $403,128
Average Revenue: $0

Capitol Logistics 362




KONT
Ontario International Airport
Ontario, California
PHNL
Daniel K Inouye International Airport
Honolulu, Hawaii

Activity Log

Date Flight Route Aircraft Duration
07/15/2022 CPX362 POM1 GMN RZS DINTY R576 DIALO/N0464F340 R576 DENNS INOYI1 B763 5h 50m
07/15/2022 CPX362 POM1 GMN RZS DINTY R576 DIALO/N0458F340 R576 DENNS KAENA2 B763 6h 37m
07/11/2022 CPX362 POM1 GMN DCT RZS DCT DINTY R576 DENNS INOYI1 B763 6h 08m